sensor_id;sensor_type;location;lat;lon;timestamp;temperature;humidity
4058;DHT22;2044;48.692;9.020;2023-08-06T00:00:26;13.90;99.90
4058;DHT22;2044;48.692;9.020;2023-08-06T00:02:52;13.70;99.90
4058;DHT22;2044;48.692;9.020;2023-08-06T00:05:19;13.60;99.90
4058;DHT22;2044;48.692;9.020;2023-08-06T00:10:14;13.70;99.90
4058;DHT22;2044;48.692;9.020;2023-08-06T00:12:42;13.80;99.90
4058;DHT22;2044;48.692;9.020;2023-08-06T00:15:10;13.90;99.90
4058;DHT22;2044;48.692;9.020;2023-08-06T00:17:37;13.90;99.90
4058;DHT22;2044;48.692;9.020;2023-08-06T00:20:05;14.00;99.90
4058;DHT22;2044;48.692;9.020;2023-08-06T00:22:32;13.80;99.90
4058;DHT22;2044;48.692;9.020;2023-08-06T00:24:59;13.80;99.90
4058;DHT22;2044;48.692;9.020;2023-08-06T00:27:26;13.90;99.90
4058;DHT22;2044;48.692;9.020;2023-08-06T00:29:54;11.70;99.90
4058;DHT22;2044;48.692;9.020;2023-08-06T00:32:21;13.90;99.90
4058;DHT22;2044;48.692;9.020;2023-08-06T00:34:48;13.90;99.90
4058;DHT22;2044;48.692;9.020;2023-08-06T00:37:16;13.90;99.90
4058;DHT22;2044;48.692;9.020;2023-08-06T00:44:37;13.70;99.90
4058;DHT22;2044;48.692;9.020;2023-08-06T00:47:06;13.80;99.90
4058;DHT22;2044;48.692;9.020;2023-08-06T00:49:34;13.80;99.90
4058;DHT22;2044;48.692;9.020;2023-08-06T00:52:02;13.70;99.90
4058;DHT22;2044;48.692;9.020;2023-08-06T00:54:30;13.80;99.90
4058;DHT22;2044;48.692;9.020;2023-08-06T00:59:25;13.60;99.90
4058;DHT22;2044;48.692;9.020;2023-08-06T01:01:52;13.50;99.90
4058;DHT22;2044;48.692;9.020;2023-08-06T01:04:20;13.40;99.90
4058;DHT22;2044;48.692;9.020;2023-08-06T01:06:48;13.20;99.90
4058;DHT22;2044;48.692;9.020;2023-08-06T01:09:28;13.10;99.90
4058;DHT22;2044;48.692;9.020;2023-08-06T01:12:05;13.20;99.90
4058;DHT22;2044;48.692;9.020;2023-08-06T01:14:37;13.00;99.90
4058;DHT22;2044;48.692;9.020;2023-08-06T01:17:09;13.00;99.90
4058;DHT22;2044;48.692;9.020;2023-08-06T01:19:37;12.90;99.90
4058;DHT22;2044;48.692;9.020;2023-08-06T01:22:05;12.90;99.90
4058;DHT22;2044;48.692;9.020;2023-08-06T01:27:05;12.70;99.90
4058;DHT22;2044;48.692;9.020;2023-08-06T01:29:37;12.50;99.90
4058;DHT22;2044;48.692;9.020;2023-08-06T01:32:08;12.60;99.90
4058;DHT22;2044;48.692;9.020;2023-08-06T01:34:38;12.60;99.90
4058;DHT22;2044;48.692;9.020;2023-08-06T01:37:07;12.70;99.90
4058;DHT22;2044;48.692;9.020;2023-08-06T01:39:34;12.70;99.90
4058;DHT22;2044;48.692;9.020;2023-08-06T01:44:28;12.70;99.90
4058;DHT22;2044;48.692;9.020;2023-08-06T01:49:21;12.70;99.90
4058;DHT22;2044;48.692;9.020;2023-08-06T01:51:48;12.80;99.90
4058;DHT22;2044;48.692;9.020;2023-08-06T01:54:16;12.80;99.90
4058;DHT22;2044;48.692;9.020;2023-08-06T01:59:10;12.50;99.90
4058;DHT22;2044;48.692;9.020;2023-08-06T02:01:36;12.50;99.90
4058;DHT22;2044;48.692;9.020;2023-08-06T02:06:30;12.60;99.90
4058;DHT22;2044;48.692;9.020;2023-08-06T02:11:25;12.00;99.90
4058;DHT22;2044;48.692;9.020;2023-08-06T02:13:52;12.40;99.90
4058;DHT22;2044;48.692;9.020;2023-08-06T02:16:19;12.40;99.90
4058;DHT22;2044;48.692;9.020;2023-08-06T02:18:45;12.30;99.90
4058;DHT22;2044;48.692;9.020;2023-08-06T02:21:12;12.00;99.90
4058;DHT22;2044;48.692;9.020;2023-08-06T02:23:39;12.20;99.90
4058;DHT22;2044;48.692;9.020;2023-08-06T02:28:34;12.20;99.90
4058;DHT22;2044;48.692;9.020;2023-08-06T02:31:00;12.20;99.90
4058;DHT22;2044;48.692;9.020;2023-08-06T02:35:59;12.10;99.90
4058;DHT22;2044;48.692;9.020;2023-08-06T02:40:53;12.20;99.90
4058;DHT22;2044;48.692;9.020;2023-08-06T02:45:48;12.20;99.90
4058;DHT22;2044;48.692;9.020;2023-08-06T02:48:15;12.40;99.90
4058;DHT22;2044;48.692;9.020;2023-08-06T02:50:43;12.30;99.90
4058;DHT22;2044;48.692;9.020;2023-08-06T02:53:10;12.30;99.90
4058;DHT22;2044;48.692;9.020;2023-08-06T03:02:59;12.60;99.90
4058;DHT22;2044;48.692;9.020;2023-08-06T03:05:26;12.80;99.90
4058;DHT22;2044;48.692;9.020;2023-08-06T03:07:52;12.70;99.90
4058;DHT22;2044;48.692;9.020;2023-08-06T03:10:19;12.80;99.90
4058;DHT22;2044;48.692;9.020;2023-08-06T03:12:46;13.00;99.90
4058;DHT22;2044;48.692;9.020;2023-08-06T03:15:13;13.00;99.90
4058;DHT22;2044;48.692;9.020;2023-08-06T03:17:39;12.90;99.90
4058;DHT22;2044;48.692;9.020;2023-08-06T03:20:08;13.10;99.90
4058;DHT22;2044;48.692;9.020;2023-08-06T03:22:35;13.10;99.90
4058;DHT22;2044;48.692;9.020;2023-08-06T03:25:02;13.20;99.90
4058;DHT22;2044;48.692;9.020;2023-08-06T03:27:29;13.20;99.90
4058;DHT22;2044;48.692;9.020;2023-08-06T03:32:22;13.40;99.90
4058;DHT22;2044;48.692;9.020;2023-08-06T03:34:49;13.30;99.90
4058;DHT22;2044;48.692;9.020;2023-08-06T03:37:17;13.30;99.90
4058;DHT22;2044;48.692;9.020;2023-08-06T03:39:44;13.20;99.90
4058;DHT22;2044;48.692;9.020;2023-08-06T03:42:10;13.20;99.90
4058;DHT22;2044;48.692;9.020;2023-08-06T03:47:05;13.20;99.90
4058;DHT22;2044;48.692;9.020;2023-08-06T03:49:32;13.10;99.90
4058;DHT22;2044;48.692;9.020;2023-08-06T03:51:58;13.10;99.90
4058;DHT22;2044;48.692;9.020;2023-08-06T03:54:26;13.10;99.90
4058;DHT22;2044;48.692;9.020;2023-08-06T03:56:53;13.10;99.90
4058;DHT22;2044;48.692;9.020;2023-08-06T03:59:20;13.00;99.90
4058;DHT22;2044;48.692;9.020;2023-08-06T04:04:13;13.20;99.90
4058;DHT22;2044;48.692;9.020;2023-08-06T04:06:40;13.30;99.90
4058;DHT22;2044;48.692;9.020;2023-08-06T04:09:07;13.20;99.90
4058;DHT22;2044;48.692;9.020;2023-08-06T04:11:35;13.00;99.90
4058;DHT22;2044;48.692;9.020;2023-08-06T04:14:01;12.90;99.90
4058;DHT22;2044;48.692;9.020;2023-08-06T04:16:28;13.00;99.90
4058;DHT22;2044;48.692;9.020;2023-08-06T04:26:16;13.00;99.90
4058;DHT22;2044;48.692;9.020;2023-08-06T04:28:44;13.00;99.90
4058;DHT22;2044;48.692;9.020;2023-08-06T04:31:10;13.00;99.90
4058;DHT22;2044;48.692;9.020;2023-08-06T04:33:37;13.10;99.90
4058;DHT22;2044;48.692;9.020;2023-08-06T04:36:04;13.00;99.90
4058;DHT22;2044;48.692;9.020;2023-08-06T04:38:31;12.80;99.90
4058;DHT22;2044;48.692;9.020;2023-08-06T04:40:58;13.20;99.90
4058;DHT22;2044;48.692;9.020;2023-08-06T04:43:24;13.00;99.90
4058;DHT22;2044;48.692;9.020;2023-08-06T04:45:54;13.00;99.90
4058;DHT22;2044;48.692;9.020;2023-08-06T04:48:21;13.00;99.90
4058;DHT22;2044;48.692;9.020;2023-08-06T04:50:49;12.90;99.90
4058;DHT22;2044;48.692;9.020;2023-08-06T04:53:16;13.20;99.90
4058;DHT22;2044;48.692;9.020;2023-08-06T04:55:43;13.00;99.90
4058;DHT22;2044;48.692;9.020;2023-08-06T04:58:10;13.20;99.90
4058;DHT22;2044;48.692;9.020;2023-08-06T05:00:37;13.10;99.90
4058;DHT22;2044;48.692;9.020;2023-08-06T05:03:05;13.10;99.90
4058;DHT22;2044;48.692;9.020;2023-08-06T05:05:32;13.30;99.90
4058;DHT22;2044;48.692;9.020;2023-08-06T05:10:27;13.20;99.90
4058;DHT22;2044;48.692;9.020;2023-08-06T05:12:53;13.10;99.90
4058;DHT22;2044;48.692;9.020;2023-08-06T05:15:20;13.50;99.90
4058;DHT22;2044;48.692;9.020;2023-08-06T05:17:47;13.70;99.90
4058;DHT22;2044;48.692;9.020;2023-08-06T05:20:15;14.50;99.90
4058;DHT22;2044;48.692;9.020;2023-08-06T05:25:09;15.30;99.90
4058;DHT22;2044;48.692;9.020;2023-08-06T05:27:36;14.80;99.90
4058;DHT22;2044;48.692;9.020;2023-08-06T05:30:03;14.40;99.90
4058;DHT22;2044;48.692;9.020;2023-08-06T05:32:30;14.20;99.90
4058;DHT22;2044;48.692;9.020;2023-08-06T05:34:57;13.70;99.90
4058;DHT22;2044;48.692;9.020;2023-08-06T05:37:25;13.90;99.90
4058;DHT22;2044;48.692;9.020;2023-08-06T05:39:52;14.00;99.90
4058;DHT22;2044;48.692;9.020;2023-08-06T05:44:45;13.70;99.90
4058;DHT22;2044;48.692;9.020;2023-08-06T05:47:12;13.80;99.90
4058;DHT22;2044;48.692;9.020;2023-08-06T05:49:39;13.70;99.90
4058;DHT22;2044;48.692;9.020;2023-08-06T05:52:06;13.50;99.90
4058;DHT22;2044;48.692;9.020;2023-08-06T05:54:35;13.70;99.90
4058;DHT22;2044;48.692;9.020;2023-08-06T05:57:02;13.60;99.90
4058;DHT22;2044;48.692;9.020;2023-08-06T05:59:28;13.50;99.90
4058;DHT22;2044;48.692;9.020;2023-08-06T06:04:22;13.60;99.90
4058;DHT22;2044;48.692;9.020;2023-08-06T06:09:16;13.30;99.90
4058;DHT22;2044;48.692;9.020;2023-08-06T06:11:44;13.10;99.90
4058;DHT22;2044;48.692;9.020;2023-08-06T06:14:11;13.20;99.90
4058;DHT22;2044;48.692;9.020;2023-08-06T06:16:37;13.20;99.90
4058;DHT22;2044;48.692;9.020;2023-08-06T06:19:04;13.40;99.90
4058;DHT22;2044;48.692;9.020;2023-08-06T06:21:31;13.20;99.90
4058;DHT22;2044;48.692;9.020;2023-08-06T06:23:57;13.10;99.90
4058;DHT22;2044;48.692;9.020;2023-08-06T06:28:52;13.40;99.90
4058;DHT22;2044;48.692;9.020;2023-08-06T06:31:19;13.40;99.90
4058;DHT22;2044;48.692;9.020;2023-08-06T06:33:46;13.50;99.90
4058;DHT22;2044;48.692;9.020;2023-08-06T06:36:12;13.40;99.90
4058;DHT22;2044;48.692;9.020;2023-08-06T06:38:39;13.40;99.90
4058;DHT22;2044;48.692;9.020;2023-08-06T06:41:06;13.60;99.90
4058;DHT22;2044;48.692;9.020;2023-08-06T06:43:33;13.90;99.90
4058;DHT22;2044;48.692;9.020;2023-08-06T06:46:01;13.50;99.90
4058;DHT22;2044;48.692;9.020;2023-08-06T06:48:29;13.60;99.90
4058;DHT22;2044;48.692;9.020;2023-08-06T06:50:56;13.60;99.90
4058;DHT22;2044;48.692;9.020;2023-08-06T06:55:53;13.20;99.90
4058;DHT22;2044;48.692;9.020;2023-08-06T06:58:19;12.50;99.90
4058;DHT22;2044;48.692;9.020;2023-08-06T07:05:43;12.90;99.90
4058;DHT22;2044;48.692;9.020;2023-08-06T07:08:10;12.60;99.90
4058;DHT22;2044;48.692;9.020;2023-08-06T07:10:37;12.70;99.90
4058;DHT22;2044;48.692;9.020;2023-08-06T07:13:03;12.60;99.90
4058;DHT22;2044;48.692;9.020;2023-08-06T07:15:30;12.80;99.90
4058;DHT22;2044;48.692;9.020;2023-08-06T07:17:57;12.70;99.90
4058;DHT22;2044;48.692;9.020;2023-08-06T07:20:26;12.70;99.90
4058;DHT22;2044;48.692;9.020;2023-08-06T07:22:55;12.70;99.90
4058;DHT22;2044;48.692;9.020;2023-08-06T07:25:24;12.20;99.90
4058;DHT22;2044;48.692;9.020;2023-08-06T07:30:19;12.60;99.90
4058;DHT22;2044;48.692;9.020;2023-08-06T07:35:13;12.40;99.90
4058;DHT22;2044;48.692;9.020;2023-08-06T07:40:09;12.50;99.90
4058;DHT22;2044;48.692;9.020;2023-08-06T07:42:36;12.90;99.90
4058;DHT22;2044;48.692;9.020;2023-08-06T07:45:03;12.60;99.90
4058;DHT22;2044;48.692;9.020;2023-08-06T07:47:29;12.60;99.90
4058;DHT22;2044;48.692;9.020;2023-08-06T07:52:23;12.60;99.90
4058;DHT22;2044;48.692;9.020;2023-08-06T07:54:51;12.70;99.90
4058;DHT22;2044;48.692;9.020;2023-08-06T07:57:18;12.80;99.90
4058;DHT22;2044;48.692;9.020;2023-08-06T07:59:45;13.00;99.90
4058;DHT22;2044;48.692;9.020;2023-08-06T08:02:12;13.30;99.90
4058;DHT22;2044;48.692;9.020;2023-08-06T08:07:05;13.70;99.90
4058;DHT22;2044;48.692;9.020;2023-08-06T08:09:34;13.60;99.90
4058;DHT22;2044;48.692;9.020;2023-08-06T08:12:03;13.80;99.90
4058;DHT22;2044;48.692;9.020;2023-08-06T08:14:29;14.10;99.90
4058;DHT22;2044;48.692;9.020;2023-08-06T08:17:01;13.80;99.90
4058;DHT22;2044;48.692;9.020;2023-08-06T08:19:27;13.40;99.90
4058;DHT22;2044;48.692;9.020;2023-08-06T08:21:54;13.40;99.90
4058;DHT22;2044;48.692;9.020;2023-08-06T08:24:21;13.30;99.90
4058;DHT22;2044;48.692;9.020;2023-08-06T08:26:49;13.20;99.90
4058;DHT22;2044;48.692;9.020;2023-08-06T08:29:19;13.20;99.90
4058;DHT22;2044;48.692;9.020;2023-08-06T08:41:38;13.30;99.90
4058;DHT22;2044;48.692;9.020;2023-08-06T08:44:08;13.30;99.90
4058;DHT22;2044;48.692;9.020;2023-08-06T08:46:39;13.00;99.90
4058;DHT22;2044;48.692;9.020;2023-08-06T08:54:03;12.90;99.90
4058;DHT22;2044;48.692;9.020;2023-08-06T09:03:54;13.60;99.90
4058;DHT22;2044;48.692;9.020;2023-08-06T09:08:54;13.70;99.90
4058;DHT22;2044;48.692;9.020;2023-08-06T09:11:23;14.20;99.90
4058;DHT22;2044;48.692;9.020;2023-08-06T09:26:11;14.30;99.90
4058;DHT22;2044;48.692;9.020;2023-08-06T09:36:10;13.80;99.90
4058;DHT22;2044;48.692;9.020;2023-08-06T10:03:32;13.40;99.90
4058;DHT22;2044;48.692;9.020;2023-08-06T10:11:01;13.40;99.90
4058;DHT22;2044;48.692;9.020;2023-08-06T10:25:53;13.30;99.90
4058;DHT22;2044;48.692;9.020;2023-08-06T10:33:19;13.40;99.90
4058;DHT22;2044;48.692;9.020;2023-08-06T10:35:47;13.50;99.90
4058;DHT22;2044;48.692;9.020;2023-08-06T10:38:15;13.50;99.90
4058;DHT22;2044;48.692;9.020;2023-08-06T10:40:48;13.50;99.90
4058;DHT22;2044;48.692;9.020;2023-08-06T10:43:27;13.40;99.90
4058;DHT22;2044;48.692;9.020;2023-08-06T10:51:00;13.40;99.90
4058;DHT22;2044;48.692;9.020;2023-08-06T11:08:25;13.70;99.90
4058;DHT22;2044;48.692;9.020;2023-08-06T11:42:50;14.60;99.90
4058;DHT22;2044;48.692;9.020;2023-08-06T11:45:22;14.50;99.90
4058;DHT22;2044;48.692;9.020;2023-08-06T11:52:53;14.60;99.90
4058;DHT22;2044;48.692;9.020;2023-08-06T11:55:23;14.50;99.90
4058;DHT22;2044;48.692;9.020;2023-08-06T12:05:16;14.60;99.90
4058;DHT22;2044;48.692;9.020;2023-08-06T12:07:44;14.80;99.90
4058;DHT22;2044;48.692;9.020;2023-08-06T12:10:13;14.70;99.90
4058;DHT22;2044;48.692;9.020;2023-08-06T12:15:08;14.50;99.90
4058;DHT22;2044;48.692;9.020;2023-08-06T12:20:04;14.10;99.90
4058;DHT22;2044;48.692;9.020;2023-08-06T12:22:31;14.20;99.90
4058;DHT22;2044;48.692;9.020;2023-08-06T12:25:01;14.20;99.90
4058;DHT22;2044;48.692;9.020;2023-08-06T12:29:56;14.50;99.90
4058;DHT22;2044;48.692;9.020;2023-08-06T12:44:39;14.40;99.90
4058;DHT22;2044;48.692;9.020;2023-08-06T12:47:07;14.50;99.90
4058;DHT22;2044;48.692;9.020;2023-08-06T13:01:57;15.30;99.90
4058;DHT22;2044;48.692;9.020;2023-08-06T13:09:19;15.20;99.90
4058;DHT22;2044;48.692;9.020;2023-08-06T13:16:43;15.80;99.90
4058;DHT22;2044;48.692;9.020;2023-08-06T13:21:59;16.20;99.90
4058;DHT22;2044;48.692;9.020;2023-08-06T14:01:23;15.70;99.90
4058;DHT22;2044;48.692;9.020;2023-08-06T14:03:49;16.10;99.90
4058;DHT22;2044;48.692;9.020;2023-08-06T14:08:44;16.10;99.90
4058;DHT22;2044;48.692;9.020;2023-08-06T14:11:11;15.90;99.90
4058;DHT22;2044;48.692;9.020;2023-08-06T14:13:38;16.00;99.90
4058;DHT22;2044;48.692;9.020;2023-08-06T14:20:59;15.70;99.90
4058;DHT22;2044;48.692;9.020;2023-08-06T14:23:26;15.70;99.90
4058;DHT22;2044;48.692;9.020;2023-08-06T14:25:54;15.10;99.90
4058;DHT22;2044;48.692;9.020;2023-08-06T15:47:03;15.10;99.90
4058;DHT22;2044;48.692;9.020;2023-08-06T15:51:58;16.50;99.90
4058;DHT22;2044;48.692;9.020;2023-08-06T15:59:23;16.00;99.90
4058;DHT22;2044;48.692;9.020;2023-08-06T16:09:13;15.60;99.90
4058;DHT22;2044;48.692;9.020;2023-08-06T16:36:12;15.70;99.90
4058;DHT22;2044;48.692;9.020;2023-08-06T16:51:00;14.90;99.90
4058;DHT22;2044;48.692;9.020;2023-08-06T16:53:27;14.70;99.90
4058;DHT22;2044;48.692;9.020;2023-08-06T16:55:54;14.50;99.90
4058;DHT22;2044;48.692;9.020;2023-08-06T17:30:18;12.80;99.90
4058;DHT22;2044;48.692;9.020;2023-08-06T17:35:14;12.50;99.90
4058;DHT22;2044;48.692;9.020;2023-08-06T17:37:41;12.30;99.90
4058;DHT22;2044;48.692;9.020;2023-08-06T17:40:08;12.30;99.90
4058;DHT22;2044;48.692;9.020;2023-08-06T17:52:26;12.40;99.90
4058;DHT22;2044;48.692;9.020;2023-08-06T18:09:37;12.10;99.90
4058;DHT22;2044;48.692;9.020;2023-08-06T18:26:50;12.30;99.90
4058;DHT22;2044;48.692;9.020;2023-08-06T18:44:02;11.70;99.90
4058;DHT22;2044;48.692;9.020;2023-08-06T19:01:19;11.40;99.90
4058;DHT22;2044;48.692;9.020;2023-08-06T19:06:15;11.50;99.90
4058;DHT22;2044;48.692;9.020;2023-08-06T19:13:43;11.40;99.90
4058;DHT22;2044;48.692;9.020;2023-08-06T19:16:09;11.60;99.90
4058;DHT22;2044;48.692;9.020;2023-08-06T19:18:37;11.60;99.90
4058;DHT22;2044;48.692;9.020;2023-08-06T19:21:04;11.60;99.90
4058;DHT22;2044;48.692;9.020;2023-08-06T19:23:31;11.90;99.90
4058;DHT22;2044;48.692;9.020;2023-08-06T19:25:59;11.60;99.90
4058;DHT22;2044;48.692;9.020;2023-08-06T19:28:26;11.70;99.90
4058;DHT22;2044;48.692;9.020;2023-08-06T19:33:19;11.90;99.90
4058;DHT22;2044;48.692;9.020;2023-08-06T19:35:49;12.00;99.90
4058;DHT22;2044;48.692;9.020;2023-08-06T19:38:17;12.00;99.90
4058;DHT22;2044;48.692;9.020;2023-08-06T19:40:44;11.90;99.90
4058;DHT22;2044;48.692;9.020;2023-08-06T19:43:12;12.00;99.90
4058;DHT22;2044;48.692;9.020;2023-08-06T19:45:39;12.40;99.90
4058;DHT22;2044;48.692;9.020;2023-08-06T19:48:06;11.90;99.90
4058;DHT22;2044;48.692;9.020;2023-08-06T19:50:33;11.90;99.90
4058;DHT22;2044;48.692;9.020;2023-08-06T19:53:01;12.10;99.90
4058;DHT22;2044;48.692;9.020;2023-08-06T19:55:28;11.80;99.90
4058;DHT22;2044;48.692;9.020;2023-08-06T19:57:55;11.90;99.90
4058;DHT22;2044;48.692;9.020;2023-08-06T20:00:21;11.80;99.90
4058;DHT22;2044;48.692;9.020;2023-08-06T20:02:49;11.90;99.90
4058;DHT22;2044;48.692;9.020;2023-08-06T20:07:43;11.90;99.90
4058;DHT22;2044;48.692;9.020;2023-08-06T20:10:11;11.90;99.90
4058;DHT22;2044;48.692;9.020;2023-08-06T20:12:37;11.60;99.90
4058;DHT22;2044;48.692;9.020;2023-08-06T20:15:05;12.00;99.90
4058;DHT22;2044;48.692;9.020;2023-08-06T20:19:59;12.00;99.90
4058;DHT22;2044;48.692;9.020;2023-08-06T20:22:25;11.90;99.90
4058;DHT22;2044;48.692;9.020;2023-08-06T20:27:20;11.60;99.90
4058;DHT22;2044;48.692;9.020;2023-08-06T20:29:47;11.40;99.90
4058;DHT22;2044;48.692;9.020;2023-08-06T20:32:14;11.40;99.90
4058;DHT22;2044;48.692;9.020;2023-08-06T20:34:41;11.30;99.90
4058;DHT22;2044;48.692;9.020;2023-08-06T20:39:35;11.00;99.90
4058;DHT22;2044;48.692;9.020;2023-08-06T20:44:31;10.90;99.90
4058;DHT22;2044;48.692;9.020;2023-08-06T20:47:00;10.90;99.90
4058;DHT22;2044;48.692;9.020;2023-08-06T20:51:54;10.90;99.90
4058;DHT22;2044;48.692;9.020;2023-08-06T20:56:48;10.90;99.90
4058;DHT22;2044;48.692;9.020;2023-08-06T20:59:15;10.80;99.90
4058;DHT22;2044;48.692;9.020;2023-08-06T21:01:43;11.00;99.90
4058;DHT22;2044;48.692;9.020;2023-08-06T21:04:09;10.70;99.90
4058;DHT22;2044;48.692;9.020;2023-08-06T21:06:36;10.50;99.90
4058;DHT22;2044;48.692;9.020;2023-08-06T21:13:59;10.40;99.90
4058;DHT22;2044;48.692;9.020;2023-08-06T21:18:54;10.30;99.90
4058;DHT22;2044;48.692;9.020;2023-08-06T21:21:21;10.20;99.90
4058;DHT22;2044;48.692;9.020;2023-08-06T21:28:43;10.20;99.90
4058;DHT22;2044;48.692;9.020;2023-08-06T21:31:11;10.20;99.90
4058;DHT22;2044;48.692;9.020;2023-08-06T21:33:39;10.20;99.90
4058;DHT22;2044;48.692;9.020;2023-08-06T21:36:07;10.20;99.90
4058;DHT22;2044;48.692;9.020;2023-08-06T21:38:36;10.30;99.90
4058;DHT22;2044;48.692;9.020;2023-08-06T21:41:04;10.30;99.90
4058;DHT22;2044;48.692;9.020;2023-08-06T21:43:31;10.10;99.90
4058;DHT22;2044;48.692;9.020;2023-08-06T21:46:00;10.10;99.90
4058;DHT22;2044;48.692;9.020;2023-08-06T21:50:59;9.90;99.90
4058;DHT22;2044;48.692;9.020;2023-08-06T21:53:28;10.10;99.90
4058;DHT22;2044;48.692;9.020;2023-08-06T21:55:56;10.00;99.90
4058;DHT22;2044;48.692;9.020;2023-08-06T21:58:23;10.00;99.90
4058;DHT22;2044;48.692;9.020;2023-08-06T22:00:49;10.00;99.90
4058;DHT22;2044;48.692;9.020;2023-08-06T22:03:16;10.00;99.90
4058;DHT22;2044;48.692;9.020;2023-08-06T22:08:10;10.00;99.90
4058;DHT22;2044;48.692;9.020;2023-08-06T22:10:38;10.00;99.90
4058;DHT22;2044;48.692;9.020;2023-08-06T22:15:32;10.30;99.90
4058;DHT22;2044;48.692;9.020;2023-08-06T22:20:26;10.00;99.90
4058;DHT22;2044;48.692;9.020;2023-08-06T22:25:20;10.50;99.90
4058;DHT22;2044;48.692;9.020;2023-08-06T22:27:48;10.00;99.90
4058;DHT22;2044;48.692;9.020;2023-08-06T22:30:15;9.90;99.90
4058;DHT22;2044;48.692;9.020;2023-08-06T22:32:42;9.90;99.90
4058;DHT22;2044;48.692;9.020;2023-08-06T22:35:09;10.00;99.90
4058;DHT22;2044;48.692;9.020;2023-08-06T22:37:36;9.80;99.90
4058;DHT22;2044;48.692;9.020;2023-08-06T22:40:04;9.80;99.90
4058;DHT22;2044;48.692;9.020;2023-08-06T22:42:31;9.90;99.90
4058;DHT22;2044;48.692;9.020;2023-08-06T22:44:59;9.90;99.90
4058;DHT22;2044;48.692;9.020;2023-08-06T22:49:53;10.00;99.90
4058;DHT22;2044;48.692;9.020;2023-08-06T22:52:19;10.00;99.90
4058;DHT22;2044;48.692;9.020;2023-08-06T22:57:13;9.80;99.90
4058;DHT22;2044;48.692;9.020;2023-08-06T22:59:40;9.90;99.90
4058;DHT22;2044;48.692;9.020;2023-08-06T23:02:08;9.90;99.90
4058;DHT22;2044;48.692;9.020;2023-08-06T23:04:34;9.90;99.90
4058;DHT22;2044;48.692;9.020;2023-08-06T23:07:01;9.80;99.90
4058;DHT22;2044;48.692;9.020;2023-08-06T23:09:28;10.00;99.90
4058;DHT22;2044;48.692;9.020;2023-08-06T23:14:21;9.90;99.90
4058;DHT22;2044;48.692;9.020;2023-08-06T23:16:49;9.90;99.90
4058;DHT22;2044;48.692;9.020;2023-08-06T23:19:17;9.80;99.90
4058;DHT22;2044;48.692;9.020;2023-08-06T23:21:43;9.90;99.90
4058;DHT22;2044;48.692;9.020;2023-08-06T23:24:10;9.80;99.90
4058;DHT22;2044;48.692;9.020;2023-08-06T23:29:04;9.80;99.90
4058;DHT22;2044;48.692;9.020;2023-08-06T23:31:30;9.60;99.90
4058;DHT22;2044;48.692;9.020;2023-08-06T23:36:26;9.60;99.90
4058;DHT22;2044;48.692;9.020;2023-08-06T23:38:52;9.60;99.90
4058;DHT22;2044;48.692;9.020;2023-08-06T23:41:20;9.40;99.90
4058;DHT22;2044;48.692;9.020;2023-08-06T23:43:47;9.40;99.90
4058;DHT22;2044;48.692;9.020;2023-08-06T23:46:13;9.50;99.90
4058;DHT22;2044;48.692;9.020;2023-08-06T23:48:40;9.40;99.90
4058;DHT22;2044;48.692;9.020;2023-08-06T23:51:07;9.40;99.90
4058;DHT22;2044;48.692;9.020;2023-08-06T23:53:35;10.30;99.90
4058;DHT22;2044;48.692;9.020;2023-08-06T23:58:29;9.40;99.90
